Hoppa till innehåll

METAR väder och rapporter - ESGG

Nedan listas information från vald flygplats. Andra METARs finns längre ned på sidan. Kontakta oss om någon saknas eller skriv in egen ICAO-kod.

Andra intressanta METARs

Klicka på önskad rubrik nedan för att visa nuvarande väder för den platsen.

Avstånd från stationen: NO 27kmESGG - Göteborg (Landvetter)
Uppdaterad: 2021-12-07 16:20
 Vind från OSO
Vind: OSO 19 km/h
Temperatur: -5°C
Vindavkylning: -12°C
Daggpunkt: -7°C
Luftfuktighet: 86%
Barometer: 1012 hPa
Summering: Light Snow
Moln: Genommulet
Sikt: 10 km
Molninformation: Några få moln 884 m
Genommulet 1189 m
2021/12/07 15:20 ESGG 071520Z 11010KT 9999 -SN FEW029 OVC039 M05/M07 Q1012
Light snow, Genommulet
Light snow
Genommulet
  Visa detaljer för Göteborg (Landvetter)
Avstånd från stationen: N 28kmESGP - Göteborg (Säve)
Uppdaterad: 2021-12-07 16:59
 
unable to load ESGP data RC=404 Not Found
unable to load ESGP data RC=404 Not Found
  Visa detaljer för Göteborg (Säve)
Avstånd från stationen: NO 419kmESSA - Stockholm (Arlanda)
Uppdaterad: 2021-12-07 16:20
 Vind från VSV
Vind: VSV 4 km/h
Temperatur: -15°C
Daggpunkt: -17°C
Luftfuktighet: 85%
Barometer: 1017 hPa
Summering: Klart
Sikt: mer än 10 km
2021/12/07 15:20 ESSA 071520Z 25002KT CAVOK M15/M17 Q1017 NOSIG
Klart
Klart
  Visa detaljer för Stockholm (Arlanda)
Avstånd från stationen: ONO 404kmESSB - Stockholm (Bromma)
Uppdaterad: 2021-12-07 16:20
 Vind från varierande
Vind: varierande 2 km/h
Temperatur: -13°C
Daggpunkt: -15°C
Luftfuktighet: 85%
Barometer: 1018 hPa
Summering: Klart
Sikt: mer än 10 km
2021/12/07 15:20 ESSB 071520Z VRB01KT CAVOK M13/M15 Q1018
Klart
Klart
  Visa detaljer för Stockholm (Bromma)
Avstånd från stationen: ONO 323kmESKN - Stockholm (Skavsta)
Uppdaterad: 2021-12-07 16:20
 Vind från NO
Vind: NO 4 km/h
Temperatur: -15°C
Daggpunkt: -17°C
Luftfuktighet: 85%
Barometer: 1017 hPa
Summering: Klart
Sikt: mer än 10 km
2021/12/07 15:20 ESKN 071520Z 05002KT CAVOK M15/M17 Q1017
Klart
Klart
  Visa detaljer för Stockholm (Skavsta)
Avstånd från stationen: SSO 238kmESMS - Malmö flygplats (Sturup)
Uppdaterad: 2021-12-07 16:20
 Vind från OSO
Vind: OSO 15 km/h
Temperatur: 1°C
Vindavkylning: -3°C
Daggpunkt: -6°C
Luftfuktighet: 60%
Barometer: 1013 hPa
Moln: Genommulet
Sikt: 10 km
Molninformation: Genommulet 914 m
2021/12/07 15:20 ESMS 071520Z 12008KT 9999 OVC030 01/M06 Q1013
Genommulet
Genommulet
  Visa detaljer för Malmö flygplats (Sturup)
Avstånd från stationen: O 382kmESSV - Visby flygplats
Uppdaterad: 2021-12-07 16:20
 Vind från SO
Vind: SO 6 km/h
Temperatur: -10°C
Daggpunkt: -10°C
Luftfuktighet: 100%
Barometer: 1017 hPa
Summering: Klart
Sikt: mer än 10 km
2021/12/07 15:20 ESSV 071520Z 14003KT CAVOK M10/M10 Q1017
Klart
Klart
  Visa detaljer för Visby flygplats
Avstånd från stationen: NNO 92kmESGT - Trollhättan
Uppdaterad: 2021-12-07 15:50
 Vind från SSO
Vind: SSO 13 km/h
Temperatur: -3°C
Vindavkylning: -7°C
Daggpunkt: -6°C
Luftfuktighet: 80%
Barometer: 1014 hPa
Summering: Light Snow
Moln: Övervägande molnigt
Sikt: 10 km
Molninformation: Övervägande molnigt 1219 m
2021/12/07 14:50 ESGT 071450Z 15007KT 9999 -SN BKN040 M03/M06 Q1014
Light snow, Övervägande molnigt
Light snow
Övervägande molnigt
  Visa detaljer för Trollhättan
Avstånd från stationen: ONO 129kmESGJ - Jönköpings flygplats
Uppdaterad: 2021-12-07 15:50
 Vind från SO
Vind: SO 15 km/h
Temperatur: -5°C
Vindavkylning: -11°C
Daggpunkt: -7°C
Luftfuktighet: 86%
Barometer: 1014 hPa
Summering: Snow Grains
Moln: Övervägande molnigt
Sikt: 10 km
Molninformation: Övervägande molnigt 1006 m
2021/12/07 14:50 ESGJ 071450Z 13008KT 9999 SG BKN033 M05/M07 Q1014 RESG
Snow grains, Övervägande molnigt
Snow grains
Övervägande molnigt
  Visa detaljer för Jönköpings flygplats
Avstånd från stationen: NNO 229kmESOK - Karlstad
Uppdaterad: 2021-12-07 15:50
 Vind från ONO
Vind: ONO 11 km/h
Temperatur: -11°C
Vindavkylning: -17°C
Daggpunkt: -12°C
Luftfuktighet: 92%
Barometer: 1015 hPa
Moln: Övervägande molnigt
Sikt: 10 km
Molninformation: Övervägande molnigt 1311 m
2021/12/07 14:50 ESOK 071450Z 07006KT 9999 BKN043 M11/M12 Q1015
Övervägande molnigt
Övervägande molnigt
  Visa detaljer för Karlstad
Avstånd från stationen: N 643kmESNZ - Östersund (Frösön)
Uppdaterad: 2021-12-07 16:20
 Vind från SSO
Vind: SSO 22 km/h
Temperatur: -11°C
Vindavkylning: -20°C
Daggpunkt: -15°C
Luftfuktighet: 73%
Barometer: 1010 hPa
Moln: Övervägande molnigt
Sikt: 10 km
Molninformation: Övervägande molnigt 1036 m
2021/12/07 15:20 ESNZ 071520Z 15012KT 9999 BKN034 M11/M15 Q1010
Övervägande molnigt
Övervägande molnigt
  Visa detaljer för Östersund (Frösön)
Avstånd från stationen: SSO 216kmEKCH - Köpenhamn (Kastrup)
Uppdaterad: 2021-12-07 09:20
Ej aktuell
 
2021/12/07 08:20

  Visa detaljer för Köpenhamn (Kastrup)
Avstånd från stationen: SV 263kmEKBI - Billund Airport
Uppdaterad: 2021-12-07 02:20
Ej aktuell
 
2021/12/07 01:20

  Visa detaljer för Billund Airport
Avstånd från stationen: N 302kmENGM - Oslo (Gardermoen)
Uppdaterad: 2021-12-07 16:20
 Vind från NNO
Vind: NNO 6 km/h
Temperatur: -11°C
Daggpunkt: -13°C
Luftfuktighet: 85%
Barometer: 1014 hPa
Summering: Skurar i närheten
Moln: Övervägande molnigt
Sikt: 10 km
Molninformation: Några få moln 183 m
Övervägande molnigt 305 m
2021/12/07 15:20 ENGM 071520Z 02003KT 9999 VCSH FEW006 BKN010 M11/M13 Q1014 NOSIG
Nearby showers, Övervägande molnigt
Nearby showers
Övervägande molnigt
  Visa detaljer för Oslo (Gardermoen)
Avstånd från stationen: NO 540kmEFMA - Mariehamn / Åland
Uppdaterad: 2021-12-07 16:20
 Vind från NNV
Vind: NNV 2 km/h
Temperatur: -15°C
Daggpunkt: -17°C
Luftfuktighet: 85%
Barometer: 1018 hPa
Summering: Klart
Sikt: mer än 10 km
2021/12/07 15:20 EFMA 071520Z AUTO 33001KT CAVOK M15/M17 Q1018
Klart
Klart
  Visa detaljer för Mariehamn / Åland
Avstånd från stationen: S 558kmEDDT - Berlin (Tegel), Germany
Uppdaterad: 2021-12-07 16:59
 
unable to load EDDT data RC=404 Not Found
unable to load EDDT data RC=404 Not Found
  Visa detaljer för Berlin (Tegel), Germany
Avstånd från stationen: SV 737kmEHAM - Amsterdam (Schiphol)
Uppdaterad: 2021-12-07 16:25
 Vind från SSO
Vind: SSO 28 km/h
Temperatur: 5°C
Vindavkylning: 1°C
Daggpunkt: 2°C
Luftfuktighet: 81%
Barometer: 1002 hPa
Summering: Klart
Sikt: mer än 10 km
2021/12/07 15:25 EHAM 071525Z 15015KT CAVOK 05/02 Q1002 NOSIG
Klart
Klart
  Visa detaljer för Amsterdam (Schiphol)
Avstånd från stationen: ONO 808kmEFHK - Helsingfors (Vantaa)
Uppdaterad: 2021-12-07 16:20
 Vind från NNV
Vind: NNV 6 km/h
Temperatur: -17°C
Daggpunkt: -18°C
Luftfuktighet: 92%
Barometer: 1017 hPa
Moln: Övervägande molnigt
Sikt: 10 km
Molninformation: Några få moln 1067 m
Övervägande molnigt 1341 m
2021/12/07 15:20 EFHK 071520Z 34003KT 9999 FEW035 BKN044 M17/M18 Q1017 NOSIG
Övervägande molnigt
Övervägande molnigt
  Visa detaljer för Helsingfors (Vantaa)
Avstånd från stationen: SSV 537kmEDDW - Bremen
Uppdaterad: 2021-12-07 16:20
 Vind från SSO
Vind: SSO 11 km/h
Temperatur: 4°C
Vindavkylning: 1°C
Daggpunkt: 3°C
Luftfuktighet: 93%
Barometer: 1007 hPa
Moln: Övervägande molnigt
Sikt: 8 km
Molninformation: Övervägande molnigt 366 m
2021/12/07 15:20 EDDW 071520Z 15006KT 8000 BKN012 04/03 Q1007 TEMPO BKN009
Övervägande molnigt
Övervägande molnigt
  Visa detaljer för Bremen
Avstånd från stationen: SSV 861kmEDDF - Frankfurt am Main
Uppdaterad: 2021-12-07 16:20
 Vind från SO
Vind: SO 7 km/h
Temperatur: 4°C
Vindavkylning: 2°C
Daggpunkt: 0°C
Luftfuktighet: 75%
Barometer: 1009 hPa
Moln: Några få moln
Sikt: 10 km
Molninformation: Några få moln 792 m
2021/12/07 15:20 EDDF 071520Z 14004KT 9999 FEW026 04/M00 Q1009 NOSIG
Några få moln
Några få moln
  Visa detaljer för Frankfurt am Main
Avstånd från stationen: SV 880kmEBBR - Bryssel international
Uppdaterad: 2021-12-07 16:20
 Vind från S
Vind: S 26 km/h
Temperatur: 5°C
Vindavkylning: 1°C
Daggpunkt: 1°C
Luftfuktighet: 76%
Barometer: 1003 hPa
Moln: Några få moln
Sikt: 10 km
Molninformation: Några få moln 549 m
2021/12/07 15:20 EBBR 071520Z 17014KT 140V200 9999 FEW018 05/01 Q1003 BECMG BKN012
Några få moln
Några få moln
  Visa detaljer för Bryssel international
Avstånd från stationen: SV 738kmEHAM - Amsterdam (Schiphol)
Uppdaterad: 2021-12-07 16:25
 Vind från SSO
Vind: SSO 28 km/h
Temperatur: 5°C
Vindavkylning: 1°C
Daggpunkt: 2°C
Luftfuktighet: 81%
Barometer: 1002 hPa
Summering: Klart
Sikt: mer än 10 km
2021/12/07 15:25 EHAM 071525Z 15015KT CAVOK 05/02 Q1002 NOSIG
Klart
Klart
  Visa detaljer för Amsterdam (Schiphol)
Avstånd från stationen: SV 1044kmEGLL - London (Heathrow)
Uppdaterad: 2021-12-07 13:50
Ej aktuell
 Vind från SSO
Vind: SSO 26 km/h
Temperatur: 7°C
Vindavkylning: 3°C
Daggpunkt: 6°C
Luftfuktighet: 93%
Barometer: 993 hPa
Summering: Lätt regn
Moln: Genommulet
Sikt: 10 km
Molninformation: Genommulet 335 m
2021/12/07 12:50 EGLL 071250Z AUTO 15014KT 9999 -RA OVC011 07/06 Q0993 TEMPO 16020G30KT
Lätt regn, Genommulet
Lätt regn
Genommulet
  Visa detaljer för London (Heathrow)
Avstånd från stationen: SV 1132kmLFPG - Paris (Charles de Gaulle)
Uppdaterad: 2021-12-07 16:30
 Vind från SSO
Vind: SSO 28 km/h
Temperatur: 7°C
Vindavkylning: 3°C
Daggpunkt: 4°C
Luftfuktighet: 81%
Barometer: 1000 hPa
Moln: Genommulet
Sikt: 10 km
Molninformation: Några få moln 1402 m
Genommulet 3048 m
2021/12/07 15:30 LFPG 071530Z 15015KT 9999 FEW046 OVC100 07/04 Q1000 NOSIG
Genommulet
Genommulet
  Visa detaljer för Paris (Charles de Gaulle)
Avstånd från stationen: SSV 1142kmLSZH - Zürich Airport
Uppdaterad: 2021-12-07 16:20
 Vind från SO
Vind: SO 13 km/h
Temperatur: 3°C
Vindavkylning: -1°C
Daggpunkt: 0°C
Luftfuktighet: 81%
Barometer: 1010 hPa
Moln: Några få moln
Sikt: 10 km
Molninformation: Några få moln 762 m
2021/12/07 15:20 LSZH 071520Z 13007KT 9999 FEW025 03/00 Q1010 NOSIG
Några få moln
Några få moln
  Visa detaljer för Zürich Airport
Avstånd från stationen: S 1749kmLIRF - Rome Airport (Fiumicino - Leonardo da Vinci)
Uppdaterad: 2021-12-07 16:20
 Vind från NV
Vind: NV 13 km/h
Temperatur: 10°C
Vindavkylning: 8°C
Daggpunkt: 3°C
Luftfuktighet: 62%
Barometer: 1013 hPa
Summering: Klart
Sikt: mer än 10 km
2021/12/07 15:20 LIRF 071520Z 31007KT CAVOK 10/03 Q1013 NOSIG
Klart
Klart
  Visa detaljer för Rome Airport (Fiumicino - Leonardo da Vinci)
Avstånd från stationen: SO 2679kmLTAI - Antalya
Uppdaterad: 2021-12-07 16:20
 Vind från SSV
Vind: SSV 59 km/h
Vindby: 78 km/h
Temperatur: 16°C
Daggpunkt: 10°C
Luftfuktighet: 68%
Barometer: 1003 hPa
Summering: Light thunderstorm, Regn
Moln: Övervägande molnigt
Sikt: 10 km
Molninformation: Några få moln 610 m
Övervägande molnigt 914 m
2021/12/07 15:20 LTAI 071520Z 20032G42KT 9999 3300S -TSRA FEW020CB BKN030 16/10 Q1003 WS ALL RWY BECMG TL1600 NSW
Light thunderstorm, Regn, Övervägande molnigt
Light thunderstorm
Regn
Övervägande molnigt
  Visa detaljer för Antalya
Avstånd från stationen: VSV 6074kmKJFK - New Your (JFK)
Uppdaterad: 2021-12-07 15:51
 Vind från V
Vind: V 20 km/h
Temperatur: 5°C
Vindavkylning: 1°C
Daggpunkt: -6°C
Luftfuktighet: 45%
Barometer: 1022.7 hPa
Moln: Övervägande molnigt
Sikt: 16 km
Molninformation: Några få moln 1311 m
Några få moln 5791 m
Övervägande molnigt 7925 m
2021/12/07 14:51 KJFK 071451Z 27011KT 10SM FEW043 FEW190 BKN260 05/M06 A3020 RMK AO2 SLP226 T00501061 51025
Övervägande molnigt
Övervägande molnigt
  Visa detaljer för New Your (JFK)
Avstånd från stationen: VSV 8848kmKLAX - Los Angeles International Airport
Uppdaterad: 2021-12-07 16:09
 Vind från ONO
Vind: ONO 7 km/h
Temperatur: 15°C
Daggpunkt: 11°C
Luftfuktighet: 77%
Barometer: 1014.9 hPa
Summering: Lätt regn
Moln: Genommulet
Sikt: 11 km
Molninformation: Övervägande molnigt 549 m
Genommulet 3353 m
2021/12/07 15:09 KLAX 071509Z 07004KT 7SM -RA BKN018 OVC110 15/11 A2997 RMK AO2 P0000 T01500111
Lätt regn, Genommulet
Lätt regn
Genommulet
  Visa detaljer för Los Angeles International Airport
Avstånd från stationen: SO 4968kmOMDB - Dubai International Airport
Uppdaterad: 2021-12-07 16:00
 Vind från NNO
Vind: NNO 13 km/h
Temperatur: 25°C
Daggpunkt: 16°C
Luftfuktighet: 57%
Barometer: 1018 hPa
Summering: Klart
Sikt: mer än 10 km
2021/12/07 15:00 OMDB 071500Z 02007KT 360V070 CAVOK 25/16 Q1018 NOSIG
Klart
Klart
  Visa detaljer för Dubai International Airport
Avstånd från stationen: OSO 8570kmRJTT - Tokyo International Airport
Uppdaterad: 2021-12-07 16:30
 Vind från N
Vind: N 37 km/h
Temperatur: 12°C
Daggpunkt: 10°C
Luftfuktighet: 88%
Barometer: 1015 hPa
Summering: Lätt regn, Showers
Moln: Övervägande molnigt
Sikt: 8 km
Molninformation: Några få moln 305 m
Övervägande molnigt 366 m
Övervägande molnigt 610 m
2021/12/07 15:30 RJTT 071530Z 35020KT 8000 -SHRA FEW010 BKN012 BKN020 12/10 Q1015 TEMPO 35024G34KT 4000 RA BR FEW005 BKN008 RMK 1ST010 5CU012 7CU020 A2998
Lätt regn, Showers, Övervägande molnigt
Lätt regn
Showers
Övervägande molnigt
  Visa detaljer för Tokyo International Airport
Avstånd från stationen: OSO 7125kmZBAA - Peking (Beijing Capital)
Uppdaterad: 2021-12-07 16:00
 Vind från calm
Vind: Vindstilla
Temperatur: -3°C
Daggpunkt: -6°C
Luftfuktighet: 80%
Barometer: 1033 hPa
Summering: Klart
Sikt: mer än 10 km
2021/12/07 15:00 ZBAA 071500Z 00000MPS CAVOK M03/M06 Q1033 NOSIG
Klart
Klart
  Visa detaljer för Peking (Beijing Capital)
VÄDER KURIOSA -  HumidityHumidity is the amount of water vapor in the air. The term "humidity" refers to relative humidity. Relative humidity is defined as the amount of water vapor in a sample of air compared to the maximum amount of water vapor the air can hold at any specific temperature in a form of 0 to 100%. Relative humidity is important in forecasting weather. Humidity indicates the likelihood of precipitation, dew, or fog. High humidity makes people feel hotter outside in the summer because it reduces the effectiveness of sweating to cool the body by preventing the evaporation of perspiration from the skin.